Time;durP1;ratioP1;P1;durP2;ratioP2;P2;SDS_P1;SDS_P2;PMS_P1;PMS_P2;Temp;Humidity;BMP_temperature;BMP_pressure;BME280_temperature;BME280_humidity;BME280_pressure;Samples;Min_cycle;Max_cycle;Signal;HPM_P1;HPM_P2
2021/03/26 00:01:02;;;;;;;11.95;5.15;;;5.40;99.90;;;;;;5035420;28;20029;-80
2021/03/26 00:03:32;;;;;;;8.93;4.43;;;5.30;99.90;;;;;;5034526;28;20046;-79
2021/03/26 00:06:06;;;;;;;11.95;5.82;;;5.20;99.90;;;;;;5035126;28;20026;-77
2021/03/26 00:08:33;;;;;;;9.10;5.78;;;5.20;99.90;;;;;;5035004;28;20447;-78
2021/03/26 00:10:59;;;;;;;9.95;5.35;;;5.10;99.90;;;;;;5036754;28;20042;-77
2021/03/26 00:13:25;;;;;;;9.43;5.65;;;5.10;99.90;;;;;;5034645;28;20021;-79
2021/03/26 00:15:52;;;;;;;10.88;6.65;;;5.10;99.90;;;;;;5034737;28;20048;-79
2021/03/26 00:18:18;;;;;;;10.80;6.00;;;5.10;99.90;;;;;;5033549;28;20050;-79
2021/03/26 00:20:45;;;;;;;10.75;6.28;;;5.10;99.90;;;;;;5034650;28;20026;-79
2021/03/26 00:23:11;;;;;;;10.75;5.75;;;5.00;99.90;;;;;;5034475;28;20029;-79
2021/03/26 00:25:37;;;;;;;13.77;6.00;;;5.10;99.90;;;;;;5049015;28;20057;-79
2021/03/26 00:28:05;;;;;;;8.15;4.95;;;5.00;99.90;;;;;;5034246;28;20044;-79
2021/03/26 00:30:33;;;;;;;8.38;5.85;;;5.00;99.90;;;;;;5034877;28;20037;-79
2021/03/26 00:32:59;;;;;;;8.23;5.72;;;4.90;99.90;;;;;;5034515;28;20049;-77
2021/03/26 00:35:27;;;;;;;9.32;5.28;;;4.90;99.90;;;;;;5035624;28;20045;-79
2021/03/26 00:37:54;;;;;;;13.27;6.38;;;4.90;99.90;;;;;;5033828;28;20038;-79
2021/03/26 00:40:21;;;;;;;14.20;7.47;;;4.80;99.90;;;;;;5034287;28;20032;-79
2021/03/26 00:42:48;;;;;;;18.15;7.70;;;5.00;99.90;;;;;;5034710;28;20029;-79
2021/03/26 00:45:19;;;;;;;17.00;8.50;;;5.10;99.90;;;;;;5049874;28;20049;-80
2021/03/26 00:47:46;;;;;;;16.20;7.78;;;5.20;99.90;;;;;;5034177;28;20487;-79
2021/03/26 00:50:32;;;;;;;14.50;7.38;;;5.30;99.90;;;;;;5043626;28;20077;-79
2021/03/26 00:53:01;;;;;;;19.50;9.52;;;5.40;99.90;;;;;;5049915;28;20052;-80
2021/03/26 00:55:27;;;;;;;16.00;8.63;;;5.50;99.90;;;;;;5031912;28;20617;-79
2021/03/26 00:57:54;;;;;;;16.63;8.55;;;5.60;99.90;;;;;;5034094;28;20038;-79
2021/03/26 01:00:25;;;;;;;14.55;8.60;;;5.90;99.90;;;;;;5032403;28;20470;-79
2021/03/26 01:02:52;;;;;;;15.45;8.30;;;6.00;99.90;;;;;;5047147;28;20057;-79
2021/03/26 01:05:23;;;;;;;15.20;7.53;;;5.80;99.90;;;;;;5033854;28;20045;-80
2021/03/26 01:07:50;;;;;;;14.07;7.68;;;5.70;99.90;;;;;;5034156;28;20402;-79
2021/03/26 01:10:20;;;;;;;14.00;7.88;;;5.60;99.90;;;;;;5032915;28;20041;-80
2021/03/26 01:12:49;;;;;;;15.85;7.00;;;5.40;99.90;;;;;;5032867;28;20048;-79
2021/03/26 01:15:17;;;;;;;15.07;7.05;;;5.40;99.90;;;;;;5048379;28;20045;-79
2021/03/26 01:17:46;;;;;;;10.00;7.50;;;5.30;99.90;;;;;;5032845;28;20474;-78
2021/03/26 01:20:16;;;;;;;10.25;6.22;;;5.20;99.90;;;;;;5044673;28;20048;-79
2021/03/26 01:22:43;;;;;;;11.48;6.57;;;5.20;99.90;;;;;;5032861;28;20402;-80
2021/03/26 01:25:24;;;;;;;16.73;7.15;;;5.10;99.90;;;;;;5031570;28;20045;-79
2021/03/26 01:28:03;;;;;;;14.10;7.13;;;5.00;99.90;;;;;;5032122;28;20052;-79
2021/03/26 01:30:30;;;;;;;15.32;7.20;;;4.90;99.90;;;;;;5033415;28;20029;-79
2021/03/26 01:32:58;;;;;;;14.07;7.93;;;4.80;99.90;;;;;;5032326;28;20398;-79
2021/03/26 01:35:27;;;;;;;18.90;8.93;;;4.80;99.90;;;;;;5042697;28;20504;-79
2021/03/26 01:37:53;;;;;;;22.90;11.70;;;4.70;99.90;;;;;;5032842;28;20045;-80
2021/03/26 01:40:24;;;;;;;15.18;8.52;;;4.70;99.90;;;;;;5032324;28;20053;-80
2021/03/26 01:42:51;;;;;;;18.48;8.93;;;4.80;99.90;;;;;;5032930;28;20493;-80
2021/03/26 01:45:23;;;;;;;13.32;8.20;;;4.80;99.90;;;;;;5031763;28;20048;-78
2021/03/26 01:47:53;;;;;;;13.63;7.95;;;4.90;99.90;;;;;;5032007;28;20064;-80
2021/03/26 01:50:22;;;;;;;14.98;8.05;;;4.90;99.90;;;;;;5032823;28;20037;-79
2021/03/26 01:52:48;;;;;;;19.02;8.10;;;4.80;99.90;;;;;;5032263;28;20068;-79
2021/03/26 01:55:40;;;;;;;14.52;7.47;;;4.70;99.90;;;;;;5040488;28;20056;-80
2021/03/26 01:58:08;;;;;;;14.70;7.53;;;4.60;99.90;;;;;;5047930;28;20135;-80
2021/03/26 02:00:43;;;;;;;13.60;7.90;;;4.50;99.90;;;;;;5032851;28;20028;-80
2021/03/26 02:03:14;;;;;;;17.73;8.82;;;4.50;99.90;;;;;;5033423;28;20048;-79
2021/03/26 02:05:48;;;;;;;15.43;8.65;;;4.50;99.90;;;;;;5045289;28;20497;-79
2021/03/26 02:08:30;;;;;;;19.88;9.10;;;4.60;99.90;;;;;;5032697;28;20046;-78
2021/03/26 02:11:14;;;;;;;15.02;7.13;;;4.50;99.90;;;;;;5031548;28;20037;-79
2021/03/26 02:13:41;;;;;;;16.20;8.57;;;4.50;99.90;;;;;;5031641;28;20406;-78
2021/03/26 02:16:24;;;;;;;10.70;6.70;;;4.40;99.90;;;;;;5031665;28;20049;-79
2021/03/26 02:19:31;;;;;;;12.55;6.60;;;4.40;99.90;;;;;;5014568;28;20038;-77
2021/03/26 02:21:58;;;;;;;11.45;7.25;;;4.30;99.90;;;;;;5031393;28;20048;-80
2021/03/26 02:24:26;;;;;;;14.63;7.90;;;4.20;99.90;;;;;;5032061;28;20402;-78
2021/03/26 02:26:57;;;;;;;14.98;7.47;;;4.20;99.90;;;;;;5032302;28;20363;-79
2021/03/26 02:29:28;;;;;;;13.18;8.52;;;4.20;99.90;;;;;;5031291;28;20505;-80
2021/03/26 02:32:36;;;;;;;11.93;7.47;;;4.20;99.90;;;;;;5047129;28;20042;-80
2021/03/26 02:35:14;;;;;;;15.65;8.80;;;4.10;99.90;;;;;;5047026;28;20049;-78
2021/03/26 02:37:56;;;;;;;15.93;9.07;;;4.10;99.90;;;;;;5031180;28;20462;-80
2021/03/26 02:40:52;;;;;;;14.60;8.63;;;4.10;99.90;;;;;;5031370;28;20429;-80
2021/03/26 02:43:46;;;;;;;16.48;9.82;;;4.10;99.90;;;;;;5018430;28;20037;-79
2021/03/26 02:46:56;;;;;;;15.20;10.38;;;4.10;99.90;;;;;;5046776;28;20064;-80
2021/03/26 02:49:45;;;;;;;21.92;11.25;;;4.10;99.90;;;;;;5030344;28;20037;-78
2021/03/26 02:52:45;;;;;;;28.55;11.05;;;4.10;99.90;;;;;;5047264;28;20048;-79
2021/03/26 02:55:41;;;;;;;53.40;28.27;;;4.10;99.90;;;;;;5031832;28;20050;-79
2021/03/26 02:58:22;;;;;;;25.10;13.43;;;4.20;99.90;;;;;;5030998;28;20398;-79
2021/03/26 03:01:32;;;;;;;22.00;10.82;;;4.20;99.90;;;;;;5031110;28;20048;-79
2021/03/26 03:04:08;;;;;;;32.95;16.10;;;4.30;99.90;;;;;;5021696;28;20037;-78
2021/03/26 03:06:40;;;;;;;29.25;15.48;;;4.30;99.90;;;;;;5031929;28;20486;-77
2021/03/26 03:09:32;;;;;;;16.92;10.43;;;4.20;99.90;;;;;;5022034;28;20505;-79
2021/03/26 03:12:08;;;;;;;17.27;10.07;;;4.20;99.90;;;;;;5031810;28;20049;-80
2021/03/26 03:15:13;;;;;;;19.70;11.15;;;4.10;99.90;;;;;;5044971;28;20040;-80
2021/03/26 03:17:48;;;;;;;15.93;10.82;;;4.30;99.90;;;;;;5042537;28;20033;-79
2021/03/26 03:20:20;;;;;;;38.47;19.42;;;4.30;99.90;;;;;;5035813;28;20044;-79
2021/03/26 03:23:10;;;;;;;25.50;13.55;;;4.20;99.90;;;;;;5036404;28;20029;-78
2021/03/26 03:26:01;;;;;;;20.02;11.93;;;4.10;99.90;;;;;;5036017;28;20049;-80
2021/03/26 03:28:49;;;;;;;18.27;11.73;;;4.10;99.90;;;;;;5051520;28;20408;-80
2021/03/26 03:31:53;;;;;;;18.52;10.45;;;4.10;99.90;;;;;;5026409;28;20394;-78
2021/03/26 03:34:24;;;;;;;20.58;12.38;;;4.00;99.90;;;;;;5035084;28;20029;-79
2021/03/26 03:37:10;;;;;;;20.30;11.13;;;3.90;99.90;;;;;;5034292;28;20048;-78
2021/03/26 03:39:58;;;;;;;19.50;11.40;;;3.90;99.90;;;;;;5049585;28;20041;-79
2021/03/26 03:42:34;;;;;;;22.63;11.75;;;3.90;99.90;;;;;;5035484;28;20485;-78
2021/03/26 03:45:08;;;;;;;17.70;9.55;;;4.00;99.90;;;;;;5034959;28;20041;-79
2021/03/26 03:47:54;;;;;;;44.97;20.95;;;3.90;99.90;;;;;;5035109;28;20041;-78
2021/03/26 03:50:34;;;;;;;27.20;14.45;;;3.90;99.90;;;;;;5050678;28;20044;-80
2021/03/26 03:53:26;;;;;;;34.72;16.70;;;3.90;99.90;;;;;;5050489;28;20485;-80
2021/03/26 03:56:24;;;;;;;21.67;13.98;;;4.00;99.90;;;;;;5033601;28;20049;-79
2021/03/26 03:59:07;;;;;;;18.67;11.48;;;4.00;99.90;;;;;;5034742;28;20041;-79
2021/03/26 04:02:05;;;;;;;22.75;12.77;;;3.90;99.90;;;;;;5034450;28;20052;-80
2021/03/26 04:04:51;;;;;;;20.75;12.23;;;3.90;99.90;;;;;;5034868;28;20037;-79
2021/03/26 04:07:46;;;;;;;31.60;14.23;;;3.90;99.90;;;;;;5049815;28;20050;-79
2021/03/26 04:10:15;;;;;;;20.98;14.27;;;3.90;99.90;;;;;;5004729;28;20049;-79
2021/03/26 04:12:48;;;;;;;25.67;12.40;;;4.00;99.90;;;;;;5043358;28;20048;-79
2021/03/26 04:15:58;;;;;;;21.15;12.75;;;3.90;99.90;;;;;;5050149;28;20044;-79
2021/03/26 04:18:38;;;;;;;26.55;14.13;;;4.00;99.90;;;;;;4969245;28;20046;-80
2021/03/26 04:21:12;;;;;;;24.83;14.20;;;4.20;99.90;;;;;;4962993;28;20038;-78
2021/03/26 04:24:00;;;;;;;22.75;13.43;;;4.20;99.90;;;;;;4961106;28;20484;-79
2021/03/26 04:26:53;;;;;;;26.02;15.65;;;4.30;99.90;;;;;;4968970;28;20421;-79
2021/03/26 04:30:12;;;;;;;23.65;14.68;;;4.30;99.90;;;;;;4955701;28;20050;-79
2021/03/26 04:32:59;;;;;;;25.90;14.57;;;4.30;99.90;;;;;;4955030;28;20532;-79
2021/03/26 04:35:28;;;;;;;23.27;13.80;;;4.30;99.90;;;;;;4973099;28;20055;-79
2021/03/26 04:38:16;;;;;;;26.80;15.00;;;4.20;99.90;;;;;;4972599;28;20043;-78
2021/03/26 04:40:58;;;;;;;25.13;15.38;;;4.20;99.90;;;;;;4971509;28;20035;-78
2021/03/26 04:43:49;;;;;;;27.38;16.55;;;4.20;99.90;;;;;;4956415;28;20544;-78
2021/03/26 04:46:39;;;;;;;27.85;15.65;;;4.40;99.90;;;;;;4954387;28;20059;-78
2021/03/26 04:49:18;;;;;;;23.25;13.73;;;4.40;99.90;;;;;;4992494;28;20041;-78
2021/03/26 04:52:04;;;;;;;23.83;14.52;;;4.30;99.90;;;;;;5034296;28;20386;-79
2021/03/26 04:54:39;;;;;;;23.10;14.45;;;4.30;99.90;;;;;;5049539;28;20053;-79
2021/03/26 04:57:34;;;;;;;23.73;14.93;;;4.40;99.90;;;;;;5032406;28;20426;-79
2021/03/26 05:00:28;;;;;;;26.60;15.15;;;4.30;99.90;;;;;;5033755;28;20037;-79
2021/03/26 05:03:12;;;;;;;27.98;14.90;;;4.20;99.90;;;;;;5033992;28;20042;-79
2021/03/26 05:05:48;;;;;;;26.35;14.93;;;4.10;99.90;;;;;;5033590;28;20049;-78
2021/03/26 05:08:26;;;;;;;23.77;14.75;;;4.00;99.90;;;;;;5032355;28;20490;-79
2021/03/26 05:11:13;;;;;;;25.45;17.08;;;4.00;99.90;;;;;;5042201;28;20046;-78
2021/03/26 05:13:51;;;;;;;29.73;15.23;;;4.00;99.90;;;;;;5042153;28;20048;-79
2021/03/26 05:16:41;;;;;;;26.67;16.83;;;4.00;99.90;;;;;;5049408;28;20072;-78
2021/03/26 05:19:52;;;;;;;26.50;14.97;;;3.90;99.90;;;;;;5047858;28;20028;-78
2021/03/26 05:22:39;;;;;;;27.00;15.05;;;3.80;99.90;;;;;;5047386;28;20049;-78
2021/03/26 05:25:27;;;;;;;24.20;15.68;;;3.80;99.90;;;;;;5039853;28;20049;-79
2021/03/26 05:28:11;;;;;;;25.90;15.07;;;3.80;99.90;;;;;;5043221;28;20033;-77
2021/03/26 05:30:41;;;;;;;27.25;16.75;;;4.00;99.90;;;;;;5043108;28;20036;-79
2021/03/26 05:33:36;;;;;;;30.45;16.85;;;4.10;99.90;;;;;;5032097;28;20394;-78
2021/03/26 05:36:37;;;;;;;28.20;15.73;;;4.20;99.90;;;;;;5032055;28;20398;-78
2021/03/26 05:39:37;;;;;;;21.88;13.38;;;4.30;99.90;;;;;;4993792;28;20029;-77
2021/03/26 05:42:29;;;;;;;21.35;12.10;;;4.30;99.90;;;;;;5039706;28;20044;-78
2021/03/26 05:45:41;;;;;;;19.38;13.02;;;4.40;99.90;;;;;;5032805;28;20037;-79
2021/03/26 05:48:37;;;;;;;21.20;13.52;;;4.50;99.90;;;;;;5033235;28;20042;-77
2021/03/26 05:51:28;;;;;;;21.27;12.27;;;4.50;99.90;;;;;;5047777;28;20467;-78
2021/03/26 05:54:16;;;;;;;26.40;13.73;;;4.60;99.90;;;;;;5042803;28;20044;-78
2021/03/26 05:57:33;;;;;;;21.33;13.18;;;4.70;99.90;;;;;;5018496;28;20513;-77
2021/03/26 06:00:42;;;;;;;17.60;11.40;;;5.00;99.90;;;;;;5047812;28;20041;-77
2021/03/26 06:04:01;;;;;;;19.98;11.75;;;5.70;99.90;;;;;;5033125;28;20056;-79
2021/03/26 06:07:15;;;;;;;16.77;10.93;;;6.80;99.90;;;;;;5049087;28;20083;-73
2021/03/26 06:10:23;;;;;;;14.40;11.65;;;7.90;99.90;;;;;;5005931;28;20483;-72
2021/03/26 06:13:45;;;;;;;25.92;14.60;;;8.60;99.90;;;;;;5038969;28;20044;-72
2021/03/26 06:17:05;;;;;;;19.73;12.38;;;8.10;99.40;;;;;;5012105;28;20037;-72
2021/03/26 06:20:17;;;;;;;40.40;21.42;;;7.70;99.90;;;;;;5032724;28;20132;-72
2021/03/26 06:23:49;;;;;;;45.30;22.67;;;7.40;99.90;;;;;;5032168;28;20060;-72
2021/03/26 06:26:55;;;;;;;307.45;154.88;;;7.10;99.90;;;;;;5046526;28;20041;-72
2021/03/26 06:29:40;;;;;;;76.50;39.63;;;6.90;99.90;;;;;;5044558;28;20029;-72
2021/03/26 06:32:23;;;;;;;127.78;55.90;;;6.90;99.90;;;;;;5030442;28;20406;-72
2021/03/26 06:34:49;;;;;;;;;;;6.90;99.90;;;;;;5032725;28;20482;-73
2021/03/26 06:37:37;;;;;;;263.73;119.10;;;7.00;99.90;;;;;;5032110;28;19934;-73
2021/03/26 06:40:09;;;;;;;77.88;40.58;;;7.10;99.90;;;;;;5032335;28;20037;-73
2021/03/26 06:42:59;;;;;;;24.63;17.80;;;7.60;99.90;;;;;;5032224;28;20033;-74
2021/03/26 06:45:35;;;;;;;23.05;13.77;;;8.20;99.90;;;;;;5031918;28;20241;-73
2021/03/26 06:48:29;;;;;;;28.45;15.32;;;9.60;99.90;;;;;;5031543;28;20072;-73
2021/03/26 06:51:19;;;;;;;21.15;13.45;;;10.50;97.40;;;;;;5032219;28;20044;-73
2021/03/26 06:53:51;;;;;;;22.40;14.65;;;11.30;91.60;;;;;;5031717;28;20351;-73
2021/03/26 06:56:52;;;;;;;27.80;15.63;;;11.40;90.90;;;;;;5031882;28;20060;-73
2021/03/26 06:59:31;;;;;;;19.85;13.30;;;12.10;87.30;;;;;;4987630;28;20041;-73
2021/03/26 07:02:35;;;;;;;26.15;17.55;;;13.00;81.80;;;;;;5032142;28;20041;-74
2021/03/26 07:05:13;;;;;;;19.48;13.63;;;13.90;75.10;;;;;;5031892;28;20382;-71
2021/03/26 07:07:54;;;;;;;17.45;12.23;;;13.70;72.20;;;;;;5031932;28;20049;-72
2021/03/26 07:10:58;;;;;;;26.73;18.20;;;13.60;72.00;;;;;;5031614;28;20037;-72
2021/03/26 07:13:43;;;;;;;19.70;13.77;;;13.80;71.50;;;;;;5032413;28;20033;-73
2021/03/26 07:16:35;;;;;;;23.55;17.70;;;13.50;71.30;;;;;;5037556;28;20036;-73
2021/03/26 07:19:23;;;;;;;17.50;12.93;;;13.60;71.70;;;;;;5033859;28;20061;-72
2021/03/26 07:22:04;;;;;;;15.75;11.68;;;13.80;70.50;;;;;;5031176;28;20042;-76
2021/03/26 07:25:08;;;;;;;26.65;17.20;;;13.50;70.80;;;;;;5031479;28;20560;-76
2021/03/26 07:27:37;;;;;;;18.27;11.35;;;14.10;69.60;;;;;;5031895;28;20060;-76
2021/03/26 07:30:51;;;;;;;14.73;11.55;;;14.00;68.10;;;;;;5031721;28;20042;-77
2021/03/26 07:33:30;;;;;;;14.57;12.07;;;13.90;68.10;;;;;;4961159;28;20050;-76
2021/03/26 07:36:17;;;;;;;15.27;11.07;;;14.00;68.30;;;;;;5031656;28;20442;-77
2021/03/26 07:38:47;;;;;;;17.60;11.40;;;14.30;67.70;;;;;;5031915;28;20025;-77
2021/03/26 07:41:37;;;;;;;18.15;12.65;;;14.80;66.90;;;;;;5031422;28;20045;-77
2021/03/26 07:44:18;;;;;;;;;;;14.70;66.50;;;;;;5031958;28;20037;-77
2021/03/26 07:47:09;;;;;;;16.02;10.60;;;15.40;65.40;;;;;;5042142;28;19917;-73
2021/03/26 07:49:35;;;;;;;;;;;15.20;64.10;;;;;;5043314;28;20033;-77
2021/03/26 07:52:23;;;;;;;16.25;10.65;;;15.50;63.50;;;;;;5031227;28;19912;-78
2021/03/26 07:55:22;;;;;;;12.70;10.57;;;14.90;64.20;;;;;;5031170;28;20046;-76
2021/03/26 07:58:25;;;;;;;14.27;11.13;;;14.90;64.20;;;;;;5031815;28;20050;-77
2021/03/26 08:00:54;;;;;;;16.17;10.80;;;15.20;64.10;;;;;;5034680;28;20041;-82
2021/03/26 08:03:52;;;;;;;16.48;10.60;;;15.40;61.60;;;;;;5051324;28;20037;-80
2021/03/26 08:06:55;;;;;;;13.07;10.95;;;15.70;62.30;;;;;;5040014;28;20064;-82
2021/03/26 08:09:46;;;;;;;14.98;10.52;;;16.40;60.30;;;;;;5045719;28;20378;-75
2021/03/26 08:12:49;;;;;;;16.10;10.48;;;16.30;60.10;;;;;;5034251;28;20113;-76
2021/03/26 08:15:56;;;;;;;15.02;10.23;;;16.60;59.20;;;;;;5042662;28;20050;-75
2021/03/26 08:18:45;;;;;;;13.10;9.75;;;16.60;58.20;;;;;;5034203;28;20040;-78
2021/03/26 08:21:20;;;;;;;14.35;9.50;;;16.00;58.80;;;;;;5033997;28;20025;-76
2021/03/26 08:24:27;;;;;;;16.85;10.18;;;15.70;60.20;;;;;;5034363;28;20049;-80
2021/03/26 08:27:31;;;;;;;13.93;8.93;;;15.50;61.00;;;;;;5017517;28;20104;-76
2021/03/26 08:30:32;;;;;;;13.05;9.55;;;16.00;60.00;;;;;;5042690;28;20379;-80
2021/03/26 08:33:16;;;;;;;11.52;9.07;;;16.10;58.50;;;;;;5046953;28;20092;-80
2021/03/26 08:35:57;;;;;;;13.57;9.60;;;16.00;58.90;;;;;;5044039;28;20021;-83
2021/03/26 08:38:41;;;;;;;11.43;8.55;;;16.30;58.90;;;;;;5034389;28;20025;-79
2021/03/26 08:41:28;;;;;;;12.70;9.95;;;16.80;58.10;;;;;;5047091;28;20490;-82
2021/03/26 08:43:56;;;;;;;12.68;8.95;;;17.10;57.30;;;;;;5047530;28;20037;-79
2021/03/26 08:46:28;;;;;;;15.25;9.90;;;17.10;57.30;;;;;;5042481;28;20033;-77
2021/03/26 08:49:17;;;;;;;14.57;9.05;;;16.60;57.50;;;;;;5040472;28;20480;-75
2021/03/26 08:52:17;;;;;;;13.05;8.50;;;16.90;57.70;;;;;;5033845;28;20034;-75
2021/03/26 08:55:14;;;;;;;15.02;8.93;;;17.10;55.90;;;;;;5034087;28;20386;-74
2021/03/26 08:58:18;;;;;;;11.88;8.93;;;17.40;55.30;;;;;;5032429;28;20052;-75
2021/03/26 09:00:57;;;;;;;11.57;9.35;;;16.90;56.40;;;;;;5033924;28;20048;-75
2021/03/26 09:03:34;;;;;;;13.55;8.80;;;17.10;56.00;;;;;;5033453;28;20025;-75
2021/03/26 09:06:19;;;;;;;14.00;8.68;;;17.50;55.30;;;;;;5034075;28;20366;-75
2021/03/26 09:09:19;;;;;;;13.15;9.63;;;17.40;55.10;;;;;;5033589;28;20048;-75
2021/03/26 09:12:04;;;;;;;14.32;9.48;;;17.00;56.00;;;;;;5033219;28;20030;-75
2021/03/26 09:15:14;;;;;;;12.93;9.48;;;16.30;56.70;;;;;;5040575;28;20092;-78
2021/03/26 09:17:40;;;;;;;13.18;8.50;;;16.40;56.60;;;;;;5056552;28;20045;-74
2021/03/26 09:20:51;;;;;;;11.88;8.25;;;17.30;56.00;;;;;;5037249;28;20045;-76
2021/03/26 09:23:45;;;;;;;11.95;7.95;;;17.70;54.70;;;;;;5044594;28;20040;-75
2021/03/26 09:26:42;;;;;;;12.35;8.13;;;18.00;53.80;;;;;;5046677;28;20044;-75
2021/03/26 09:29:15;;;;;;;11.23;8.38;;;17.80;54.00;;;;;;5073440;28;20059;-76
2021/03/26 09:31:47;;;;;;;11.70;7.68;;;16.90;54.70;;;;;;5045985;28;20029;-76
2021/03/26 09:34:30;;;;;;;10.77;8.23;;;17.30;55.30;;;;;;5040722;28;20032;-75
2021/03/26 09:37:08;;;;;;;13.45;8.20;;;17.20;54.70;;;;;;5042929;28;20040;-76
2021/03/26 09:39:37;;;;;;;13.02;8.63;;;17.60;55.50;;;;;;5031597;28;20030;-77
2021/03/26 09:42:31;;;;;;;10.10;8.20;;;18.40;53.80;;;;;;5051855;28;20029;-76
2021/03/26 09:45:00;;;;;;;13.18;8.30;;;17.40;54.60;;;;;;5033379;28;20037;-76
2021/03/26 09:47:34;;;;;;;11.43;8.07;;;18.20;54.10;;;;;;5032931;28;20521;-76
2021/03/26 09:50:31;;;;;;;10.70;7.22;;;18.00;52.90;;;;;;5052764;28;20040;-75
2021/03/26 09:52:58;;;;;;;13.10;9.07;;;19.20;52.40;;;;;;5030939;28;20046;-75
2021/03/26 09:55:45;;;;;;;14.23;8.80;;;18.40;51.40;;;;;;5031927;28;20064;-75
2021/03/26 09:58:42;;;;;;;14.63;8.43;;;18.30;52.40;;;;;;5031972;28;20045;-74
2021/03/26 10:01:10;;;;;;;15.25;9.15;;;17.60;52.90;;;;;;5043920;28;20036;-75
2021/03/26 10:04:03;;;;;;;15.73;9.43;;;17.60;52.80;;;;;;5046767;28;20044;-76
2021/03/26 10:06:53;;;;;;;15.63;8.45;;;17.10;53.50;;;;;;5041032;28;20037;-76
2021/03/26 10:09:31;;;;;;;12.55;8.23;;;16.40;55.70;;;;;;5032255;28;20490;-72
2021/03/26 10:12:10;;;;;;;14.48;9.10;;;15.70;56.50;;;;;;5032707;28;20056;-72
2021/03/26 10:14:49;;;;;;;13.05;8.90;;;15.80;57.00;;;;;;5032050;28;20052;-73
2021/03/26 10:17:59;;;;;;;15.00;8.50;;;16.20;56.30;;;;;;5029958;28;20403;-78
2021/03/26 10:20:51;;;;;;;15.27;9.80;;;16.50;56.50;;;;;;5026623;28;20041;-79
2021/03/26 10:23:29;;;;;;;16.73;9.95;;;16.30;56.40;;;;;;5047490;28;20421;-78
2021/03/26 10:25:55;;;;;;;14.00;9.10;;;16.50;56.20;;;;;;5032290;28;20469;-80
2021/03/26 10:28:42;;;;;;;13.43;9.18;;;16.40;55.50;;;;;;5033187;28;20058;-78
2021/03/26 10:31:16;;;;;;;14.20;9.35;;;16.30;56.00;;;;;;5040586;28;20441;-74
2021/03/26 10:33:52;;;;;;;12.15;9.00;;;16.30;56.10;;;;;;5035530;28;20029;-73
2021/03/26 10:36:19;;;;;;;15.20;9.18;;;16.10;56.90;;;;;;5050122;28;20025;-74
2021/03/26 10:39:15;;;;;;;14.43;9.40;;;16.20;56.20;;;;;;5042536;28;20047;-75
2021/03/26 10:41:48;;;;;;;15.50;10.02;;;16.20;55.90;;;;;;5033989;28;20064;-74
2021/03/26 10:44:42;;;;;;;12.82;8.55;;;15.90;56.00;;;;;;5041312;28;20037;-73
2021/03/26 10:47:16;;;;;;;12.48;8.50;;;15.50;57.30;;;;;;5034777;28;20037;-76
2021/03/26 10:49:54;;;;;;;15.70;9.52;;;15.40;57.50;;;;;;5040495;28;20037;-79
2021/03/26 10:52:28;;;;;;;13.65;9.45;;;15.60;57.40;;;;;;5033353;28;20037;-77
2021/03/26 10:55:19;;;;;;;11.25;8.15;;;15.60;56.70;;;;;;5043108;28;20050;-76
2021/03/26 10:58:07;;;;;;;12.15;8.02;;;15.50;57.00;;;;;;5028260;28;20485;-75
2021/03/26 11:00:56;;;;;;;12.25;7.75;;;15.80;55.90;;;;;;5034050;28;20068;-78
2021/03/26 11:03:28;;;;;;;10.25;7.72;;;15.90;54.60;;;;;;5046383;28;20469;-73
2021/03/26 11:05:59;;;;;;;12.73;7.80;;;15.60;55.20;;;;;;5036738;28;20040;-73
2021/03/26 11:08:41;;;;;;;11.80;8.00;;;15.90;56.20;;;;;;5039143;28;20048;-74
2021/03/26 11:11:10;;;;;;;13.00;7.97;;;15.60;55.30;;;;;;5056320;28;20049;-81
2021/03/26 11:13:59;;;;;;;12.60;9.57;;;15.80;56.10;;;;;;5042727;28;20470;-73
2021/03/26 11:16:31;;;;;;;8.98;7.20;;;15.90;56.40;;;;;;5036010;28;20028;-76
2021/03/26 11:19:26;;;;;;;9.05;6.40;;;16.20;53.70;;;;;;5038953;28;20029;-70
2021/03/26 11:22:14;;;;;;;11.57;6.25;;;16.10;52.90;;;;;;5039296;28;20136;-71
2021/03/26 11:24:56;;;;;;;10.23;6.65;;;16.10;53.40;;;;;;5045236;28;20436;-72
2021/03/26 11:27:27;;;;;;;11.63;6.38;;;16.30;53.40;;;;;;5036072;28;20053;-76
2021/03/26 11:30:22;;;;;;;9.45;5.63;;;16.50;52.50;;;;;;5031813;28;20032;-76
2021/03/26 11:33:12;;;;;;;7.85;5.47;;;16.20;52.60;;;;;;5031694;28;20048;-76
2021/03/26 11:35:40;;;;;;;9.88;5.00;;;16.20;52.10;;;;;;5032056;28;20451;-76
2021/03/26 11:38:27;;;;;;;8.35;5.57;;;16.40;51.90;;;;;;5032366;28;20045;-75
2021/03/26 11:41:09;;;;;;;8.40;5.95;;;16.60;50.90;;;;;;5035654;28;20037;-76
2021/03/26 11:43:44;;;;;;;7.43;5.88;;;16.30;52.30;;;;;;5035467;28;20048;-75
2021/03/26 11:46:16;;;;;;;10.38;5.53;;;16.50;52.10;;;;;;5035809;28;20050;-73
2021/03/26 11:49:03;;;;;;;9.02;5.90;;;16.70;51.70;;;;;;5035242;28;20456;-77
2021/03/26 11:52:05;;;;;;;9.98;6.13;;;16.70;51.00;;;;;;5034845;28;20487;-77
2021/03/26 11:54:44;;;;;;;11.27;6.75;;;16.70;51.10;;;;;;5035470;28;20050;-76
2021/03/26 11:57:25;;;;;;;9.73;6.45;;;16.60;51.40;;;;;;5034394;28;20065;-77
2021/03/26 12:00:12;;;;;;;8.95;5.55;;;16.60;51.30;;;;;;5035250;28;20399;-75
2021/03/26 12:02:51;;;;;;;8.63;5.32;;;16.70;50.50;;;;;;5035264;28;20034;-76
2021/03/26 12:05:41;;;;;;;7.20;5.43;;;17.00;50.90;;;;;;5034962;28;20040;-74
2021/03/26 12:08:22;;;;;;;8.38;5.32;;;16.70;50.20;;;;;;5034958;28;20367;-75
2021/03/26 12:11:00;;;;;;;10.68;5.85;;;16.90;50.90;;;;;;5045016;28;20346;-79
2021/03/26 12:14:03;;;;;;;8.73;6.38;;;16.80;50.60;;;;;;5049035;28;20390;-79
2021/03/26 12:16:34;;;;;;;10.10;6.28;;;16.70;51.60;;;;;;5034320;28;20026;-79
2021/03/26 12:19:05;;;;;;;;;;;17.10;51.30;;;;;;5047824;28;20037;-78
2021/03/26 12:21:34;;;;;;;9.68;6.25;;;17.20;49.90;;;;;;5034309;28;19909;-79
2021/03/26 12:24:19;;;;;;;9.77;5.82;;;17.00;51.20;;;;;;5034802;28;20033;-80
2021/03/26 12:27:21;;;;;;;10.80;6.50;;;17.30;50.40;;;;;;5040816;28;20377;-80
2021/03/26 12:29:53;;;;;;;7.82;5.85;;;17.40;49.80;;;;;;5050946;28;20029;-78
2021/03/26 12:32:28;;;;;;;9.65;6.03;;;17.50;50.10;;;;;;5042045;28;20033;-80
2021/03/26 12:35:28;;;;;;;13.05;6.70;;;17.00;50.50;;;;;;5042728;28;20048;-80
2021/03/26 12:37:59;;;;;;;9.32;6.53;;;17.10;50.70;;;;;;5043265;28;20041;-79
2021/03/26 12:40:43;;;;;;;9.73;6.70;;;17.10;50.50;;;;;;5044122;28;20025;-79
2021/03/26 12:43:26;;;;;;;10.27;6.10;;;17.00;50.30;;;;;;5041259;28;20045;-80
2021/03/26 12:45:59;;;;;;;11.57;7.07;;;17.30;50.20;;;;;;5034902;28;20029;-78
2021/03/26 12:48:39;;;;;;;10.13;7.25;;;17.20;50.10;;;;;;5033922;28;20037;-80
2021/03/26 12:51:30;;;;;;;11.07;7.63;;;17.40;50.30;;;;;;5032153;28;20060;-79
2021/03/26 12:54:27;;;;;;;9.25;6.68;;;17.20;50.30;;;;;;5033241;28;20287;-79
2021/03/26 12:57:02;;;;;;;12.13;7.45;;;17.10;50.90;;;;;;5034317;28;20048;-79
2021/03/26 12:59:34;;;;;;;8.75;6.97;;;17.30;50.40;;;;;;5033919;28;20034;-80
2021/03/26 13:02:09;;;;;;;8.65;6.90;;;17.60;49.70;;;;;;5033877;28;20030;-82
2021/03/26 13:04:51;;;;;;;8.65;6.43;;;17.50;49.60;;;;;;5037927;28;20036;-80
2021/03/26 13:07:39;;;;;;;8.82;5.70;;;17.20;50.10;;;;;;5046991;28;20037;-78
2021/03/26 13:10:23;;;;;;;8.45;6.43;;;17.20;49.70;;;;;;5033891;28;20025;-77
2021/03/26 13:12:52;;;;;;;8.07;5.95;;;17.50;49.70;;;;;;5033569;28;20033;-73
2021/03/26 13:15:38;;;;;;;11.38;7.75;;;17.50;49.90;;;;;;5033440;28;20029;-77
2021/03/26 13:18:10;;;;;;;10.02;6.45;;;17.30;49.20;;;;;;5033837;28;20471;-72
2021/03/26 13:20:53;;;;;;;10.95;6.43;;;17.10;49.40;;;;;;5033229;28;20386;-77
2021/03/26 13:23:27;;;;;;;10.38;7.18;;;17.30;50.20;;;;;;5041245;28;20394;-88
2021/03/26 13:26:00;;;;;;;11.05;7.43;;;17.60;49.70;;;;;;5037069;28;20152;-88
2021/03/26 13:28:49;;;;;;;9.82;6.68;;;17.70;49.60;;;;;;5034645;28;20382;-81
2021/03/26 13:31:20;;;;;;;9.80;6.78;;;17.50;49.10;;;;;;5034470;28;20057;-86
2021/03/26 13:33:52;;;;;;;9.68;7.05;;;17.40;49.80;;;;;;5046818;28;20025;-79
2021/03/26 13:36:45;;;;;;;11.18;6.15;;;17.30;49.30;;;;;;5046438;28;20025;-87
2021/03/26 13:39:14;;;;;;;7.65;5.93;;;17.40;48.90;;;;;;5039491;28;20050;-85
2021/03/26 13:42:01;;;;;;;8.60;5.47;;;17.20;49.10;;;;;;5038616;28;20036;-81
2021/03/26 13:44:50;;;;;;;6.53;5.03;;;17.10;49.20;;;;;;5035786;28;20036;-82
2021/03/26 13:47:43;;;;;;;10.48;6.80;;;17.10;49.50;;;;;;5041038;28;20410;-79
2021/03/26 13:50:12;;;;;;;12.07;6.53;;;17.00;49.40;;;;;;5038435;28;20064;-82
2021/03/26 13:52:47;;;;;;;10.52;6.97;;;17.00;50.00;;;;;;5033436;28;20049;-82
2021/03/26 13:55:24;;;;;;;11.07;6.82;;;17.20;49.90;;;;;;5037137;28;20121;-82
2021/03/26 13:58:17;;;;;;;9.82;6.95;;;17.60;50.00;;;;;;5041390;28;20048;-83
2021/03/26 14:01:26;;;;;;;13.48;7.65;;;17.50;49.60;;;;;;5043697;28;20046;-80
2021/03/26 14:04:14;;;;;;;10.00;6.97;;;17.50;49.10;;;;;;5036500;28;20486;-83